Impacts METAR Board
IDs:

KCLT - Charlotte/Douglas In, NC, US

Updated at: 2000 UTC 19 Jan 2019
Potential Impact None Slight Moderate High
Time 19/08Z 19/09Z 19/10Z 19/11Z 19/12Z 19/13Z 19/14Z 19/15Z 19/16Z 19/17Z 19/18Z 19/19Z 19/20Z
Temp46 45 45 44 45 46 46 47 48 49 50 52 53
Dewpt44 43 43 43 43 43 45 47 47 48 50 51 53
Altim30.10 30.09 30.07 30.07 30.05 30.04 30.03 30.04 30.01 29.99 29.92 29.87 29.83
VIS4 3 3 5 3 2.5 1.75 0.75 1.75 1.25 0.75 2 2
CIG50 50 50 35 20 10 6 4 4 4 3 5 5
CoverOVCOVCOVCOVCOVCOVCOVCOVCOVCOVCOVCOVCOVC
FltCatMVFRMVFRMVFRMVFRMVFRIFRIFRLIFRLIFRLIFRLIFRIFRIFR
WXBRBRBRBRBRBRBRBRBRBRBRBR-RA BR
WDir8001101708009090110150130140150
WSpd5 0 3 3 5 5 6 6 7 8 9 9 14
WGst-- -- -- -- -- -- -- -- -- -- -- -- --
Raw hourly METARs
KCLT 190752Z 08005KT 4SM BR OVC050 08/07 A3010 RMK AO2 SLP194 T00780067
KCLT 190852Z 00000KT 3SM BR BKN050 OVC250 07/06 A3009 RMK AO2 SLP189 T00720061 56013
KCLT 190952Z 11003KT 3SM BR FEW013 BKN050 OVC250 07/06 A3007 RMK AO2 SLP183 T00720061
KCLT 191052Z 17003KT 5SM BR FEW011 BKN035 OVC045 07/06 A3007 RMK AO2 SLP181 T00670061
KCLT 191152Z 08005KT 3SM BR FEW007 BKN020 OVC050 07/06 A3005 RMK AO2 SLP175 T00720061 10078 20061 58015
KCLT 191252Z VRB05KT 2 1/2SM BR OVC010 08/06 A3004 RMK AO2 SLP173 T00780061
KCLT 191352Z 09006KT 1 3/4SM BR BKN006 OVC010 08/07 A3003 RMK AO2 RAB1258E45 SLP170 P0001 T00780072
KCLT 191452Z 09006KT 3/4SM R18C/P6000FT BR OVC004 08/08 A3004 RMK AO2 SLP173 60001 T00830083 55001
KCLT 191552Z 11007KT 1 3/4SM BR OVC004 09/08 A3001 RMK AO2 RAB1457E10 SLP162 P0001 T00890083
KCLT 191652Z 15008KT 1 1/4SM BR OVC004 09/09 A2999 RMK AO2 RAB33E42 SLP157 P0000 T00940089
KCLT 191752Z 13009KT 3/4SM R18C/P6000FT BR OVC003 10/10 A2992 RMK AO2 RAB1658E08 PRESFR SLP131 P0000 60002 T01000100 10100 20072 58041
KCLT 191852Z 14009KT 2SM BR OVC005 11/11 A2987 RMK AO2 SFC VIS 2 1/2 SLP112 T01110106
KCLT 191952Z 15014KT 2SM -RA BR OVC005 12/12 A2983 RMK AO2 RAB10 SLP099 P0002 T01170117



Page loaded:  20:20 UTC  |   12:20 PM Pacific  |   01:20 PM Mountain  |   02:20 PM Central  |   03:20 PM Eastern

 

ADVISORIES

FORECASTS

FORECASTS

OBSERVATIONS

USER TOOLS

ABOUT US